CheckWX is a tool to help pilots better visualize weather data.  It is not intended as a substitute for an official pre-flight weather briefing.

18:16:51 UTC

KGLE METAR
Gainesville Municipal Airport
Gainesville, Texas, USA
Current

42 mins ago

KGLE 211735Z AUTO 22008KT 10SM CLR 33/20 A2997 RMK AO2 T03320197 PWINO
Observed
Jul-21 @ 17:35 UTC
Wind
  • 220° at 8 KTS
Visibility
10 SM
Flight Rules
VFR
Cloud Levels
  • Clear skies
Temperature
33°C / 91°F
Dewpoint
20°C / 68°F
Heat Index
35°C / 95°F
Humidity
46%
Altimeter
29.97" Hg
Pressure
1014.92 hPa
Previous

1 hour ago

KGLE 211715Z AUTO 21007G14KT 10SM CLR 33/20 A2997 RMK AO2 T03310200 PWINO
Observed
Jul-21 @ 17:15 UTC
Wind
  • 210° at 7 KTS
  • Gusting to 14 KTS
Visibility
10 SM
Flight Rules
VFR
Cloud Levels
  • Clear skies
Temperature
33°C / 91°F
Dewpoint
20°C / 68°F
Heat Index
35°C / 95°F
Humidity
46%
Altimeter
29.97" Hg
Pressure
1014.92 hPa
Previous

1 hour ago

KGLE 211655Z AUTO 20008KT 10SM CLR 33/20 A2997 RMK AO2 T03280200 PWINO
Observed
Jul-21 @ 16:55 UTC
Wind
  • 200° at 8 KTS
Visibility
10 SM
Flight Rules
VFR
Cloud Levels
  • Clear skies
Temperature
33°C / 91°F
Dewpoint
20°C / 68°F
Heat Index
35°C / 95°F
Humidity
46%
Altimeter
29.97" Hg
Pressure
1014.92 hPa